createdAt,value
2018-02-16T00:00:10.320Z,0.00
2018-02-16T00:01:10.125Z,0.00
2018-02-16T00:02:10.171Z,0.00
2018-02-16T00:03:09.958Z,0.00
2018-02-16T00:04:09.946Z,0.00
2018-02-16T00:05:09.799Z,0.00
2018-02-16T00:06:09.739Z,0.00
2018-02-16T00:07:09.617Z,0.00
2018-02-16T00:08:09.687Z,0.00
2018-02-16T00:09:09.454Z,0.00
2018-02-16T00:10:09.467Z,0.00
2018-02-16T00:11:09.288Z,0.00
2018-02-16T00:12:09.274Z,0.00
2018-02-16T00:13:09.210Z,0.00
2018-02-16T00:14:09.079Z,0.00
2018-02-16T00:15:08.952Z,0.00
2018-02-16T00:16:09.035Z,0.00
2018-02-16T00:17:08.784Z,0.00
2018-02-16T00:18:08.835Z,0.00
2018-02-16T00:19:08.625Z,0.00
2018-02-16T00:20:08.620Z,0.00
2018-02-16T00:21:08.455Z,0.00
2018-02-16T00:22:08.401Z,0.00
2018-02-16T00:23:08.305Z,0.00
2018-02-16T00:24:08.245Z,0.00
2018-02-16T00:25:08.138Z,0.00
2018-02-16T00:26:08.126Z,0.00
2018-02-16T00:27:07.953Z,0.00
2018-02-16T00:28:07.949Z,0.00
2018-02-16T00:29:07.806Z,0.00
2018-02-16T00:30:07.746Z,0.00
2018-02-16T00:31:07.616Z,0.00
2018-02-16T00:32:07.661Z,0.00
2018-02-16T00:33:07.470Z,0.00
2018-02-16T00:34:07.517Z,0.00
2018-02-16T00:35:07.285Z,0.00
2018-02-16T00:36:07.281Z,0.00
2018-02-16T00:37:07.128Z,0.00
2018-02-16T00:38:07.082Z,0.00
2018-02-16T00:39:06.979Z,0.00
2018-02-16T00:40:06.990Z,0.00
2018-02-16T00:41:06.789Z,0.00
2018-02-16T00:42:06.805Z,0.00
2018-02-16T00:43:06.616Z,0.00
2018-02-16T00:44:06.632Z,0.00
2018-02-16T00:45:06.452Z,0.00
2018-02-16T00:46:06.420Z,0.00
2018-02-16T00:47:06.287Z,0.00
2018-02-16T00:48:06.329Z,0.00
2018-02-16T00:49:06.158Z,0.00
2018-02-16T00:50:06.146Z,0.00
2018-02-16T00:51:05.954Z,0.00
2018-02-16T00:52:05.964Z,0.00
2018-02-16T00:53:05.780Z,0.00
2018-02-16T00:54:05.778Z,0.00
2018-02-16T00:55:05.643Z,0.00
2018-02-16T00:56:05.665Z,0.00
2018-02-16T00:57:05.450Z,0.00
2018-02-16T00:58:05.477Z,0.00
2018-02-16T00:59:05.287Z,0.00
2018-02-16T01:00:05.241Z,0.00
2018-02-16T01:01:05.112Z,0.00
2018-02-16T01:02:05.087Z,0.00
2018-02-16T01:03:04.953Z,0.00
2018-02-16T01:04:04.889Z,0.00
2018-02-16T01:05:04.783Z,0.00
2018-02-16T01:06:04.834Z,0.00
2018-02-16T01:07:04.615Z,0.00
2018-02-16T01:08:04.610Z,0.00
2018-02-16T01:09:04.470Z,0.00
2018-02-16T01:10:04.464Z,0.00
2018-02-16T01:11:04.276Z,0.00
2018-02-16T01:12:04.224Z,0.00
2018-02-16T01:13:04.125Z,0.00
2018-02-16T01:14:04.134Z,0.00
2018-02-16T01:15:03.946Z,0.00
2018-02-16T01:16:04.019Z,0.00
2018-02-16T01:17:03.797Z,0.00
2018-02-16T01:18:03.775Z,0.00
2018-02-16T01:19:03.605Z,0.00
2018-02-16T01:20:03.562Z,0.00
2018-02-16T01:21:03.440Z,0.00
2018-02-16T01:22:03.511Z,0.00
2018-02-16T01:23:03.279Z,0.00
2018-02-16T01:24:03.292Z,0.00
2018-02-16T01:25:03.107Z,0.00
2018-02-16T01:26:03.102Z,0.00
2018-02-16T01:27:02.946Z,0.00
2018-02-16T01:28:02.947Z,0.00
2018-02-16T01:29:02.778Z,0.00
2018-02-16T01:30:02.821Z,0.00
2018-02-16T01:31:02.617Z,0.00
2018-02-16T01:32:02.657Z,0.00
2018-02-16T01:33:02.463Z,0.00
2018-02-16T01:34:02.444Z,0.00
2018-02-16T01:35:02.281Z,0.00
2018-02-16T01:36:02.246Z,0.00
2018-02-16T01:37:02.119Z,0.00
2018-02-16T01:38:02.088Z,0.00
2018-02-16T01:39:02.833Z,0.00
2018-02-16T01:40:01.970Z,0.00
2018-02-16T01:41:01.773Z,0.00
2018-02-16T01:42:01.773Z,0.00
2018-02-16T01:43:01.612Z,0.00
2018-02-16T01:44:01.602Z,0.00
2018-02-16T01:45:01.444Z,0.00
2018-02-16T01:46:01.377Z,0.00
2018-02-16T01:47:01.266Z,0.00
2018-02-16T01:48:01.313Z,0.00
2018-02-16T01:49:01.118Z,0.00
2018-02-16T01:50:01.060Z,0.00
2018-02-16T01:51:00.937Z,0.00
2018-02-16T01:52:00.914Z,0.00
2018-02-16T01:53:00.792Z,0.00
2018-02-16T01:54:00.739Z,0.00
2018-02-16T01:55:00.603Z,0.00
2018-02-16T01:56:00.654Z,0.00
2018-02-16T01:57:00.424Z,0.00
2018-02-16T01:58:00.440Z,0.00
2018-02-16T01:59:00.295Z,0.00
2018-02-16T02:00:00.246Z,0.00
2018-02-16T02:01:00.100Z,0.00
2018-02-16T02:02:00.027Z,0.00
2018-02-16T02:02:59.948Z,0.00
2018-02-16T02:03:59.905Z,0.00
2018-02-16T02:04:59.766Z,0.00
2018-02-16T02:05:59.770Z,0.00
2018-02-16T02:06:59.596Z,0.00
2018-02-16T02:07:59.581Z,0.00
2018-02-16T02:08:59.443Z,0.00
2018-02-16T02:09:59.384Z,0.00
2018-02-16T02:10:59.254Z,0.00
2018-02-16T02:11:59.326Z,0.00
2018-02-16T02:12:59.096Z,0.00
2018-02-16T02:13:59.140Z,0.00
2018-02-16T02:15:06.911Z,0.00
2018-02-16T02:16:06.453Z,0.00
2018-02-16T02:16:58.830Z,0.00
2018-02-16T02:17:58.676Z,0.00
2018-02-16T02:18:58.669Z,0.00
2018-02-16T02:19:58.496Z,0.00
2018-02-16T02:20:58.545Z,0.00
2018-02-16T02:21:58.344Z,0.00
2018-02-16T02:24:40.361Z,0.00
2018-02-16T02:25:40.358Z,0.00
2018-02-16T02:26:40.178Z,0.00
2018-02-16T02:27:40.186Z,0.00
2018-02-16T02:28:40.021Z,0.00
2018-02-16T02:29:41.026Z,0.00
2018-02-16T02:30:39.835Z,0.00
2018-02-16T02:31:39.889Z,0.00
2018-02-16T02:32:39.696Z,0.00
2018-02-16T02:35:25.904Z,0.00
2018-02-16T02:36:25.886Z,0.00
2018-02-16T02:37:25.674Z,0.00
2018-02-16T02:38:25.725Z,0.00
2018-02-16T02:39:25.503Z,0.00
2018-02-16T02:40:25.534Z,0.00
2018-02-16T02:41:25.340Z,0.00
2018-02-16T02:42:25.265Z,0.00
2018-02-16T02:43:25.173Z,0.00
2018-02-16T02:44:25.215Z,0.00
2018-02-16T02:45:25.013Z,0.00
2018-02-16T02:46:25.028Z,0.00
2018-02-16T02:47:24.837Z,0.00
2018-02-16T02:48:24.838Z,0.00
2018-02-16T02:49:24.664Z,0.00
2018-02-16T02:50:24.684Z,0.00
2018-02-16T02:53:12.406Z,0.00
2018-02-16T02:54:12.259Z,0.00
2018-02-16T02:55:12.291Z,0.00
2018-02-16T02:56:12.095Z,0.00
2018-02-16T02:57:12.125Z,0.00
2018-02-16T02:58:11.921Z,0.00
2018-02-16T02:59:11.902Z,0.00
2018-02-16T03:00:11.754Z,0.00
2018-02-16T03:01:11.739Z,0.00
2018-02-16T03:02:11.584Z,0.00
2018-02-16T03:03:11.618Z,0.00
2018-02-16T03:04:11.428Z,0.00
2018-02-16T03:05:11.431Z,0.00
2018-02-16T03:06:11.273Z,0.00
2018-02-16T03:07:11.234Z,0.00
2018-02-16T03:08:11.104Z,0.00
2018-02-16T03:09:11.005Z,0.00
2018-02-16T03:10:10.918Z,0.00
2018-02-16T03:11:10.881Z,0.00
2018-02-16T03:12:10.749Z,0.00
2018-02-16T03:13:10.769Z,0.00
2018-02-16T03:14:10.576Z,0.00
2018-02-16T03:15:10.580Z,0.00
2018-02-16T03:16:10.443Z,0.00
2018-02-16T03:17:10.378Z,0.00
2018-02-16T03:18:10.265Z,0.00
2018-02-16T03:19:10.297Z,0.00
2018-02-16T03:20:10.084Z,0.00
2018-02-16T03:21:10.107Z,0.00
2018-02-16T03:22:09.941Z,0.00
2018-02-16T03:23:09.911Z,0.00
2018-02-16T03:24:09.764Z,0.00
2018-02-16T03:25:09.723Z,0.00
2018-02-16T03:26:09.580Z,0.00
2018-02-16T03:27:09.555Z,0.00
2018-02-16T03:28:09.399Z,0.00
2018-02-16T03:29:09.434Z,0.00
2018-02-16T03:30:09.244Z,0.00
2018-02-16T03:31:09.168Z,0.00
2018-02-16T03:32:09.239Z,0.00
2018-02-16T03:33:09.052Z,0.00
2018-02-16T03:34:08.900Z,0.00
2018-02-16T03:35:08.857Z,0.00
2018-02-16T03:36:08.736Z,0.00
2018-02-16T03:37:08.798Z,0.00
2018-02-16T03:38:08.569Z,0.00
2018-02-16T03:39:08.584Z,0.00
2018-02-16T03:40:08.406Z,0.00
2018-02-16T03:41:08.328Z,0.00
2018-02-16T03:42:08.256Z,0.00
2018-02-16T03:43:08.203Z,0.00
2018-02-16T03:44:08.076Z,0.00
2018-02-16T03:45:08.105Z,0.00
2018-02-16T03:46:07.902Z,0.00
2018-02-16T03:47:07.915Z,0.00
2018-02-16T03:48:07.757Z,0.00
2018-02-16T03:49:07.718Z,0.00
2018-02-16T03:50:07.566Z,0.00
2018-02-16T03:51:07.530Z,0.00
2018-02-16T03:52:07.449Z,0.00
2018-02-16T03:53:07.385Z,0.00
2018-02-16T03:54:07.241Z,0.00
2018-02-16T03:55:07.248Z,0.00
2018-02-16T03:56:07.070Z,0.00
2018-02-16T03:57:07.076Z,0.00
2018-02-16T03:58:06.908Z,0.00
2018-02-16T03:59:06.871Z,0.00
2018-02-16T04:00:06.727Z,0.00
2018-02-16T04:01:06.682Z,0.00
2018-02-16T04:02:06.565Z,0.00
2018-02-16T04:03:06.626Z,0.00
2018-02-16T04:04:06.392Z,0.00
2018-02-16T04:05:06.482Z,0.00
2018-02-16T04:06:06.239Z,0.00
2018-02-16T04:07:06.204Z,0.00
2018-02-16T04:08:06.078Z,0.00
2018-02-16T04:09:06.021Z,0.00
2018-02-16T04:10:05.923Z,0.00
2018-02-16T04:11:05.929Z,0.00
2018-02-16T04:12:05.727Z,0.00
2018-02-16T04:13:05.737Z,0.00
2018-02-16T04:14:05.557Z,0.00
2018-02-16T04:15:05.581Z,0.00
2018-02-16T04:16:05.418Z,0.00
2018-02-16T04:17:05.362Z,0.00
2018-02-16T04:18:05.219Z,0.00
2018-02-16T04:19:05.366Z,0.00
2018-02-16T04:20:05.060Z,0.00
2018-02-16T04:21:05.111Z,0.00
2018-02-16T04:22:04.895Z,0.00
2018-02-16T04:23:04.873Z,0.00
2018-02-16T04:24:04.739Z,0.00
2018-02-16T04:25:04.696Z,0.00
2018-02-16T04:26:04.547Z,0.00
2018-02-16T04:27:04.595Z,0.00
2018-02-16T04:28:04.397Z,0.00
2018-02-16T04:29:04.637Z,0.00
2018-02-16T04:30:04.233Z,0.00
2018-02-16T04:31:04.828Z,0.00
2018-02-16T04:32:04.066Z,0.00
2018-02-16T04:33:04.014Z,0.00
2018-02-16T04:34:03.882Z,0.00
2018-02-16T04:35:03.856Z,0.00
2018-02-16T04:36:03.715Z,0.00
2018-02-16T04:37:03.736Z,0.00
2018-02-16T04:38:03.557Z,0.00
2018-02-16T04:39:03.545Z,0.00
2018-02-16T04:40:03.391Z,0.00
2018-02-16T04:41:03.357Z,0.00
2018-02-16T04:42:03.217Z,0.00
2018-02-16T04:43:03.162Z,0.00
2018-02-16T04:44:03.039Z,0.00
2018-02-16T04:45:03.124Z,0.00
2018-02-16T04:46:02.888Z,0.00
2018-02-16T04:47:02.876Z,0.00
2018-02-16T04:48:02.706Z,0.00
2018-02-16T04:49:02.634Z,0.00
2018-02-16T04:50:02.837Z,0.00
2018-02-16T04:51:02.506Z,0.00
2018-02-16T04:52:02.388Z,0.00
2018-02-16T04:53:02.406Z,0.00
2018-02-16T04:54:02.286Z,0.00
2018-02-16T04:55:02.240Z,0.00
2018-02-16T04:56:02.063Z,0.00
2018-02-16T04:57:02.028Z,0.00
2018-02-16T04:58:01.893Z,0.00
2018-02-16T04:59:01.831Z,0.00
2018-02-16T05:00:01.718Z,0.00
2018-02-16T05:01:01.677Z,0.00
2018-02-16T05:02:01.545Z,0.00
2018-02-16T05:03:01.582Z,0.00
2018-02-16T05:04:01.374Z,0.00
2018-02-16T05:05:01.365Z,0.00
2018-02-16T05:06:01.222Z,0.00
2018-02-16T05:07:01.173Z,0.00
2018-02-16T05:08:01.045Z,0.00
2018-02-16T05:09:01.069Z,0.00
2018-02-16T05:10:00.880Z,0.00
2018-02-16T05:11:00.893Z,0.00
2018-02-16T05:12:01.432Z,0.00
2018-02-16T05:13:00.735Z,0.00
2018-02-16T05:14:00.533Z,0.00
2018-02-16T05:15:00.511Z,0.00
2018-02-16T05:16:00.387Z,0.00
2018-02-16T05:17:00.436Z,0.00
2018-02-16T05:18:00.202Z,0.00
2018-02-16T05:19:00.253Z,0.00
2018-02-16T05:20:00.045Z,0.00
2018-02-16T05:21:00.037Z,0.00
2018-02-16T05:21:59.881Z,0.00
2018-02-16T05:22:59.852Z,0.00
2018-02-16T05:23:59.696Z,0.00
2018-02-16T05:24:59.654Z,0.00
2018-02-16T05:25:59.533Z,0.00
2018-02-16T05:26:59.510Z,0.00
2018-02-16T05:27:59.363Z,0.00
2018-02-16T05:28:59.317Z,0.00
2018-02-16T05:29:59.228Z,0.00
2018-02-16T05:30:59.122Z,0.00
2018-02-16T05:31:59.041Z,0.00
2018-02-16T05:32:58.952Z,0.00
2018-02-16T05:33:58.875Z,0.00
2018-02-16T05:34:58.792Z,0.00
2018-02-16T05:35:58.691Z,0.00
2018-02-16T05:36:58.623Z,0.00
2018-02-16T05:37:58.550Z,0.00
2018-02-16T05:38:58.488Z,0.00
2018-02-16T05:39:58.372Z,0.00
2018-02-16T05:40:58.293Z,0.00
2018-02-16T05:41:58.934Z,0.00
2018-02-16T05:42:58.113Z,0.00
2018-02-16T05:43:58.033Z,0.00
2018-02-16T05:44:57.944Z,0.00
2018-02-16T05:45:57.866Z,0.00
2018-02-16T05:46:57.776Z,0.00
2018-02-16T05:47:57.681Z,0.00
2018-02-16T05:48:57.615Z,0.00
2018-02-16T05:49:57.513Z,0.00
2018-02-16T05:50:57.458Z,0.00
2018-02-16T05:51:57.359Z,0.00
2018-02-16T05:52:57.284Z,0.00
2018-02-16T05:53:57.198Z,0.00
2018-02-16T05:54:57.107Z,0.00
2018-02-16T05:55:57.074Z,0.00
2018-02-16T05:56:56.941Z,0.00
2018-02-16T05:57:56.849Z,0.00
2018-02-16T05:58:56.791Z,0.00
2018-02-16T05:59:56.691Z,0.00
2018-02-16T06:00:57.632Z,0.00
2018-02-16T06:01:56.642Z,0.00
2018-02-16T06:02:56.445Z,0.00
2018-02-16T06:03:56.339Z,0.00
2018-02-16T06:04:56.278Z,0.00
2018-02-16T06:05:56.170Z,0.00
2018-02-16T06:06:56.141Z,0.00
2018-02-16T06:07:56.070Z,0.00
2018-02-16T06:08:55.943Z,0.00
2018-02-16T06:09:55.838Z,0.00
2018-02-16T06:10:55.770Z,0.00
2018-02-16T06:11:55.668Z,0.00
2018-02-16T06:12:55.623Z,0.00
2018-02-16T06:13:55.506Z,0.00
2018-02-16T06:14:55.432Z,4.00
2018-02-16T06:15:55.337Z,0.00
2018-02-16T06:16:55.297Z,0.00
2018-02-16T06:17:55.196Z,4.00
2018-02-16T06:18:55.092Z,0.00
2018-02-16T06:19:55.008Z,4.00
2018-02-16T06:20:54.920Z,4.00
2018-02-16T06:21:54.888Z,4.00
2018-02-16T06:22:54.769Z,4.00
2018-02-16T06:23:54.677Z,8.00
2018-02-16T06:24:54.605Z,8.00
2018-02-16T06:25:54.504Z,8.00
2018-02-16T06:26:54.434Z,12.00
2018-02-16T06:27:54.348Z,12.00
2018-02-16T06:28:54.258Z,16.00
2018-02-16T06:29:54.160Z,16.00
2018-02-16T06:30:54.080Z,24.00
2018-02-16T06:31:54.055Z,24.00
2018-02-16T06:32:53.954Z,28.00
2018-02-16T06:33:53.836Z,24.00
2018-02-16T06:34:53.773Z,32.00
2018-02-16T06:35:53.660Z,32.00
2018-02-16T06:36:53.586Z,32.00
2018-02-16T06:37:53.501Z,32.00
2018-02-16T06:38:53.410Z,36.00
2018-02-16T06:39:53.345Z,40.00
2018-02-16T06:40:53.260Z,44.00
2018-02-16T06:41:53.156Z,48.00
2018-02-16T06:42:53.101Z,52.00
2018-02-16T06:43:53.008Z,52.00
2018-02-16T06:44:52.920Z,56.00
2018-02-16T06:45:52.828Z,60.00
2018-02-16T06:46:52.759Z,64.00
2018-02-16T06:47:52.658Z,60.00
2018-02-16T06:48:52.599Z,72.00
2018-02-16T06:49:52.494Z,80.00
2018-02-16T06:50:52.417Z,92.00
2018-02-16T06:51:52.348Z,92.00
2018-02-16T06:52:52.259Z,96.00
2018-02-16T06:53:52.156Z,112.00
2018-02-16T06:54:52.124Z,124.00
2018-02-16T06:55:51.981Z,132.00
2018-02-16T06:56:51.907Z,132.00
2018-02-16T06:57:51.812Z,144.00
2018-02-16T06:58:51.739Z,152.00
2018-02-16T06:59:51.666Z,164.00
2018-02-16T07:00:51.579Z,176.00
2018-02-16T07:01:51.517Z,188.00
2018-02-16T07:02:51.408Z,212.00
2018-02-16T07:03:51.312Z,216.00
2018-02-16T07:04:51.306Z,232.00
2018-02-16T07:05:51.144Z,248.00
2018-02-16T07:06:51.079Z,260.00
2018-02-16T07:07:50.977Z,284.00
2018-02-16T07:08:50.905Z,300.00
2018-02-16T07:09:50.832Z,328.00
2018-02-16T07:10:50.743Z,348.00
2018-02-16T07:11:50.659Z,380.00
2018-02-16T07:12:50.573Z,408.00
2018-02-16T07:13:50.471Z,420.00
2018-02-16T07:14:50.435Z,432.00
2018-02-16T07:15:50.313Z,452.00
2018-02-16T07:16:50.240Z,464.00
2018-02-16T07:17:50.149Z,504.00
2018-02-16T07:20:32.399Z,580.00
2018-02-16T07:21:32.305Z,616.00
2018-02-16T07:22:32.199Z,628.00
2018-02-16T07:23:32.136Z,644.00
2018-02-16T07:24:32.036Z,672.00
2018-02-16T07:25:31.975Z,700.00
2018-02-16T07:26:31.879Z,732.00
2018-02-16T07:27:31.807Z,776.00
2018-02-16T07:28:31.695Z,808.00
2018-02-16T07:29:31.624Z,844.00
2018-02-16T07:30:31.530Z,888.00
2018-02-16T07:31:31.484Z,924.00
2018-02-16T07:32:31.361Z,956.00
2018-02-16T07:33:31.289Z,968.00
2018-02-16T07:34:31.216Z,964.00
2018-02-16T07:38:18.398Z,1020.00
2018-02-16T07:39:18.294Z,1016.00
2018-02-16T07:40:18.194Z,984.00
2018-02-16T07:42:42.880Z,1112.00
2018-02-16T07:43:42.787Z,1140.00
2018-02-16T07:44:42.718Z,1152.00
2018-02-16T07:45:42.642Z,1176.00
2018-02-16T07:46:42.559Z,1200.00
2018-02-16T07:47:42.456Z,1292.00
2018-02-16T07:48:42.377Z,1548.00
2018-02-16T07:49:42.349Z,1768.00
2018-02-16T07:50:42.224Z,1724.00
2018-02-16T07:51:42.110Z,1528.00
2018-02-16T07:52:42.112Z,1420.00
2018-02-16T07:53:41.959Z,1480.00
2018-02-16T07:54:41.886Z,1456.00
2018-02-16T07:55:41.800Z,1412.00
2018-02-16T07:56:41.713Z,1520.00
2018-02-16T07:57:41.630Z,1708.00
2018-02-16T07:58:41.561Z,1712.00
2018-02-16T07:59:41.446Z,1664.00
2018-02-16T08:00:41.380Z,1524.00
2018-02-16T08:01:41.290Z,1412.00
2018-02-16T08:02:41.240Z,1260.00
2018-02-16T08:03:41.131Z,1308.00
2018-02-16T08:04:41.042Z,1240.00
2018-02-16T08:05:40.968Z,1348.00
2018-02-16T08:06:40.892Z,1288.00
2018-02-16T08:07:40.814Z,1312.00
2018-02-16T08:08:40.714Z,1320.00
2018-02-16T08:09:40.634Z,1132.00
2018-02-16T08:10:40.545Z,1068.00
2018-02-16T08:11:40.450Z,1196.00
2018-02-16T08:12:40.405Z,1352.00
2018-02-16T08:13:40.314Z,1308.00
2018-02-16T08:14:40.222Z,1332.00
2018-02-16T08:15:40.140Z,1268.00
2018-02-16T08:16:40.054Z,1284.00
2018-02-16T08:17:39.965Z,1336.00
2018-02-16T08:18:39.897Z,1104.00
2018-02-16T08:19:39.788Z,1108.00
2018-02-16T08:20:39.712Z,984.00
2018-02-16T08:21:39.625Z,1156.00
2018-02-16T08:22:39.556Z,1176.00
2018-02-16T08:23:39.479Z,1120.00
2018-02-16T08:24:39.386Z,1156.00
2018-02-16T08:25:39.363Z,1372.00
2018-02-16T08:26:39.218Z,1428.00
2018-02-16T08:27:39.141Z,1536.00
2018-02-16T08:28:39.103Z,1500.00
2018-02-16T08:29:38.961Z,1548.00
2018-02-16T08:30:38.891Z,1244.00
2018-02-16T08:31:38.791Z,1240.00
2018-02-16T08:32:38.713Z,1652.00
2018-02-16T08:33:38.644Z,1484.00
2018-02-16T08:34:38.564Z,1612.00
2018-02-16T08:35:38.475Z,1876.00
2018-02-16T08:36:38.382Z,2112.00
2018-02-16T08:37:38.295Z,2608.00
2018-02-16T08:38:38.246Z,2940.00
2018-02-16T08:39:38.134Z,2860.00
2018-02-16T08:40:38.064Z,3092.00
2018-02-16T08:41:37.979Z,3552.00
2018-02-16T08:44:19.896Z,3016.00
2018-02-16T08:45:19.803Z,4324.00
2018-02-16T08:46:19.732Z,2984.00
2018-02-16T08:47:19.690Z,2892.00
2018-02-16T08:48:19.540Z,3880.00
2018-02-16T08:49:19.624Z,4592.00
2018-02-16T08:50:19.391Z,4828.00
2018-02-16T08:51:19.315Z,6244.00
2018-02-16T08:52:19.224Z,8152.00
2018-02-16T08:53:19.156Z,8816.00
2018-02-16T08:54:19.066Z,6684.00
2018-02-16T08:55:19.006Z,5368.00
2018-02-16T08:56:18.882Z,4592.00
2018-02-16T08:57:18.809Z,4076.00
2018-02-16T08:58:18.749Z,3676.00
2018-02-16T08:59:18.688Z,3540.00
2018-02-16T09:00:18.581Z,3352.00
2018-02-16T09:01:18.498Z,3340.00
2018-02-16T09:02:18.411Z,3616.00
2018-02-16T09:03:18.327Z,3552.00
2018-02-16T09:04:18.279Z,3684.00
2018-02-16T09:05:18.237Z,3520.00
2018-02-16T09:06:18.075Z,3636.00
2018-02-16T09:07:18.109Z,3452.00
2018-02-16T09:08:17.916Z,3904.00
2018-02-16T09:09:18.016Z,3920.00
2018-02-16T09:10:17.803Z,3712.00
2018-02-16T09:11:17.728Z,3796.00
2018-02-16T09:12:17.628Z,3756.00
2018-02-16T09:13:17.536Z,5916.00
2018-02-16T09:14:17.435Z,3408.00
2018-02-16T09:16:59.394Z,3196.00
2018-02-16T09:17:59.365Z,3252.00
2018-02-16T09:18:59.212Z,3280.00
2018-02-16T09:19:59.142Z,3560.00
2018-02-16T09:20:59.070Z,3888.00
2018-02-16T09:21:59.095Z,3312.00
2018-02-16T09:22:58.905Z,2880.00
2018-02-16T09:25:40.896Z,4740.00
2018-02-16T09:26:40.823Z,12524.00
2018-02-16T09:27:40.716Z,12692.00
2018-02-16T09:28:40.679Z,12504.00
2018-02-16T09:29:40.555Z,12496.00
2018-02-16T09:30:40.485Z,12800.00
2018-02-16T09:31:40.435Z,13152.00
2018-02-16T09:32:40.323Z,13184.00
2018-02-16T09:33:40.248Z,13376.00
2018-02-16T09:34:40.164Z,13280.00
2018-02-16T09:35:40.075Z,13280.00
2018-02-16T09:36:40.020Z,12896.00
2018-02-16T09:37:39.925Z,12832.00
2018-02-16T09:38:39.856Z,12608.00
2018-02-16T09:39:39.765Z,12236.00
2018-02-16T09:40:39.703Z,12432.00
2018-02-16T09:41:39.628Z,12396.00
2018-02-16T09:42:39.537Z,12248.00
2018-02-16T09:43:39.448Z,12128.00
2018-02-16T09:44:39.380Z,11832.00
2018-02-16T09:45:39.379Z,11368.00
2018-02-16T09:48:21.418Z,11480.00
2018-02-16T09:49:21.351Z,11548.00
2018-02-16T09:50:21.235Z,11024.00
2018-02-16T09:51:21.202Z,10752.00
2018-02-16T09:52:21.103Z,10968.00
2018-02-16T09:53:21.022Z,11348.00
2018-02-16T09:54:20.912Z,11556.00
2018-02-16T09:55:20.865Z,11948.00
2018-02-16T09:56:20.767Z,11548.00
2018-02-16T09:57:20.729Z,11556.00
2018-02-16T09:58:20.671Z,11668.00
2018-02-16T09:59:20.561Z,12084.00
2018-02-16T10:00:20.469Z,12024.00
2018-02-16T10:01:20.402Z,11320.00
2018-02-16T10:02:20.328Z,12832.00
2018-02-16T10:03:20.260Z,14400.00
2018-02-16T10:04:20.178Z,14272.00
2018-02-16T10:05:20.084Z,15232.00
2018-02-16T10:06:19.996Z,17920.00
2018-02-16T10:07:19.947Z,18272.00
2018-02-16T10:08:19.877Z,18848.00
2018-02-16T10:09:19.782Z,19424.00
2018-02-16T10:10:19.696Z,20448.00
2018-02-16T10:11:19.644Z,19872.00
2018-02-16T10:12:19.597Z,24000.00
2018-02-16T10:13:19.504Z,21920.00
2018-02-16T10:14:19.412Z,21984.00
2018-02-16T10:15:19.326Z,21984.00
2018-02-16T10:16:19.280Z,20256.00
2018-02-16T10:17:19.189Z,21728.00
2018-02-16T10:18:19.118Z,22976.00
2018-02-16T10:19:19.053Z,23104.00
2018-02-16T10:20:18.968Z,23136.00
2018-02-16T10:21:18.959Z,21792.00
2018-02-16T10:22:18.798Z,24672.00
2018-02-16T10:23:18.729Z,22464.00
2018-02-16T10:24:18.666Z,24416.00
2018-02-16T10:25:18.612Z,21408.00
2018-02-16T10:26:18.499Z,19840.00
2018-02-16T10:27:18.433Z,23552.00
2018-02-16T10:28:18.366Z,22528.00
2018-02-16T10:29:18.304Z,29920.00
2018-02-16T10:30:18.204Z,26848.00
2018-02-16T10:31:18.163Z,29472.00
2018-02-16T10:32:18.054Z,16832.00
2018-02-16T10:33:17.986Z,29024.00
2018-02-16T10:34:17.952Z,20000.00
2018-02-16T10:35:17.833Z,24832.00
2018-02-16T10:36:17.763Z,23744.00
2018-02-16T10:37:17.729Z,13184.00
2018-02-16T10:38:17.589Z,21536.00
2018-02-16T10:39:17.530Z,22752.00
2018-02-16T10:40:17.480Z,22432.00
2018-02-16T10:41:17.390Z,20160.00
2018-02-16T10:42:17.308Z,20256.00
2018-02-16T10:43:17.245Z,18176.00
2018-02-16T10:44:17.140Z,12980.00
2018-02-16T10:45:17.079Z,10752.00
2018-02-16T10:46:17.019Z,13360.00
2018-02-16T10:47:16.920Z,22560.00
2018-02-16T10:48:16.850Z,20704.00
2018-02-16T10:49:16.772Z,11764.00
2018-02-16T10:50:16.697Z,27808.00
2018-02-16T10:51:16.642Z,17504.00
2018-02-16T10:52:16.541Z,23168.00
2018-02-16T10:53:16.478Z,23808.00
2018-02-16T10:54:16.393Z,23648.00
2018-02-16T10:55:17.039Z,24416.00
2018-02-16T10:56:16.268Z,22944.00
2018-02-16T10:57:16.184Z,12956.00
2018-02-16T10:58:16.110Z,16000.00
2018-02-16T10:59:16.052Z,15808.00
2018-02-16T11:00:15.941Z,29184.00
2018-02-16T11:01:15.926Z,27936.00
2018-02-16T11:02:15.794Z,35104.00
2018-02-16T11:03:15.829Z,10336.00
2018-02-16T11:04:15.648Z,5920.00
2018-02-16T11:05:15.576Z,35520.00
2018-02-16T11:06:15.510Z,36224.00
2018-02-16T11:07:15.428Z,32384.00
2018-02-16T11:08:15.360Z,29376.00
2018-02-16T11:09:15.286Z,5388.00
2018-02-16T11:10:15.198Z,5264.00
2018-02-16T11:11:15.175Z,7632.00
2018-02-16T11:12:15.048Z,7192.00
2018-02-16T11:13:14.988Z,35072.00
2018-02-16T11:14:14.899Z,20256.00
2018-02-16T11:15:14.833Z,6848.00
2018-02-16T11:16:14.773Z,6184.00
2018-02-16T11:17:14.707Z,23424.00
2018-02-16T11:18:14.603Z,25312.00
2018-02-16T11:19:14.657Z,5792.00
2018-02-16T11:20:14.446Z,6924.00
2018-02-16T11:21:14.378Z,24832.00
2018-02-16T11:22:14.329Z,28288.00
2018-02-16T11:23:14.263Z,5168.00
2018-02-16T11:24:14.150Z,3592.00
2018-02-16T11:25:14.088Z,4876.00
2018-02-16T11:26:13.991Z,18784.00
2018-02-16T11:27:13.943Z,4148.00
2018-02-16T11:28:13.850Z,4152.00
2018-02-16T11:29:13.801Z,4552.00
2018-02-16T11:30:13.685Z,21664.00
2018-02-16T11:31:13.629Z,13368.00
2018-02-16T11:32:13.534Z,31136.00
2018-02-16T11:33:13.483Z,20320.00
2018-02-16T11:34:13.389Z,24288.00
2018-02-16T11:35:13.310Z,9372.00
2018-02-16T11:36:13.252Z,7700.00
2018-02-16T11:37:13.191Z,9036.00
2018-02-16T11:38:13.108Z,29792.00
2018-02-16T11:39:13.058Z,30720.00
2018-02-16T11:40:12.921Z,4212.00
2018-02-16T11:41:12.857Z,3752.00
2018-02-16T11:42:12.782Z,7692.00
2018-02-16T11:43:12.718Z,32480.00
2018-02-16T11:44:12.699Z,13864.00
2018-02-16T11:45:12.546Z,28864.00
2018-02-16T11:46:12.466Z,3556.00
2018-02-16T11:47:12.421Z,36064.00
2018-02-16T11:48:12.325Z,10144.00
2018-02-16T11:49:12.253Z,46784.00
2018-02-16T11:50:12.178Z,43808.00
2018-02-16T11:51:12.102Z,45216.00
2018-02-16T11:52:12.016Z,44992.00
2018-02-16T11:53:11.952Z,46240.00
2018-02-16T11:54:11.875Z,46208.00
2018-02-16T11:55:11.797Z,45472.00
2018-02-16T11:56:11.701Z,45280.00
2018-02-16T11:57:11.636Z,46912.00
2018-02-16T11:58:11.572Z,46944.00
2018-02-16T11:59:11.495Z,48096.00
2018-02-16T12:00:11.388Z,47712.00
2018-02-16T12:01:11.332Z,47488.00
2018-02-16T12:02:11.241Z,44064.00
2018-02-16T12:03:11.211Z,47968.00
2018-02-16T12:04:11.096Z,43328.00
2018-02-16T12:05:11.033Z,49728.00
2018-02-16T12:06:10.951Z,49120.00
2018-02-16T12:07:10.903Z,5032.00
2018-02-16T12:08:10.795Z,4108.00
2018-02-16T12:09:10.769Z,25632.00
2018-02-16T12:10:10.652Z,47648.00
2018-02-16T12:11:10.584Z,46048.00
2018-02-16T12:12:10.505Z,47872.00
2018-02-16T12:13:10.455Z,3700.00
2018-02-16T12:14:10.351Z,47456.00
2018-02-16T12:15:10.290Z,3248.00
2018-02-16T12:16:10.235Z,44224.00
2018-02-16T12:17:10.141Z,2700.00
2018-02-16T12:18:10.074Z,2092.00
2018-02-16T12:19:10.014Z,2588.00
2018-02-16T12:20:09.914Z,32832.00
2018-02-16T12:21:10.518Z,44928.00
2018-02-16T12:22:09.757Z,43904.00
2018-02-16T12:23:09.690Z,43712.00
2018-02-16T12:24:09.613Z,44640.00
2018-02-16T12:25:09.554Z,45440.00
2018-02-16T12:26:09.447Z,39456.00
2018-02-16T12:27:09.383Z,16544.00
2018-02-16T12:28:09.299Z,4184.00
2018-02-16T12:29:09.254Z,3728.00
2018-02-16T12:30:09.154Z,3616.00
2018-02-16T12:31:09.083Z,3520.00
2018-02-16T12:32:08.993Z,3584.00
2018-02-16T12:33:08.940Z,3304.00
2018-02-16T12:34:08.922Z,3196.00
2018-02-16T12:35:08.803Z,3104.00
2018-02-16T12:36:08.709Z,3060.00
2018-02-16T12:37:08.743Z,2984.00
2018-02-16T12:38:08.542Z,2964.00
2018-02-16T12:39:08.492Z,2944.00
2018-02-16T12:40:08.377Z,2720.00
2018-02-16T12:41:09.320Z,2920.00
2018-02-16T12:42:08.256Z,2944.00
2018-02-16T12:43:08.174Z,3004.00
2018-02-16T12:44:08.070Z,3060.00
2018-02-16T12:45:08.005Z,3128.00
2018-02-16T12:46:07.930Z,2960.00
2018-02-16T12:47:07.838Z,3032.00
2018-02-16T12:48:07.763Z,2868.00
2018-02-16T12:49:07.698Z,2388.00
2018-02-16T12:50:07.610Z,2800.00
2018-02-16T12:51:07.577Z,2952.00
2018-02-16T12:52:07.440Z,2436.00
2018-02-16T12:53:07.381Z,2364.00
2018-02-16T12:54:07.291Z,2888.00
2018-02-16T12:55:07.232Z,2912.00